createdAt,value
2022-12-03T00:00:13.490Z,82.37
2022-12-03T00:03:01.932Z,82.76
2022-12-03T00:05:30.228Z,82.73
2022-12-03T00:07:59.453Z,82.70
2022-12-03T00:10:27.668Z,82.65
2022-12-03T00:12:55.592Z,82.65
2022-12-03T00:15:23.839Z,82.50
2022-12-03T00:17:51.759Z,82.25
2022-12-03T00:20:21.751Z,82.27
2022-12-03T00:22:49.794Z,82.36
2022-12-03T00:25:19.473Z,82.04
2022-12-03T00:27:47.495Z,82.27
2022-12-03T00:30:16.091Z,82.02
2022-12-03T00:32:44.030Z,82.26
2022-12-03T00:35:12.286Z,82.23
2022-12-03T00:37:40.168Z,82.01
2022-12-03T00:40:09.570Z,81.78
2022-12-03T00:42:39.056Z,81.85
2022-12-03T00:45:08.169Z,81.86
2022-12-03T00:47:36.036Z,81.80
2022-12-03T00:50:04.467Z,82.01
2022-12-03T00:52:32.390Z,82.21
2022-12-03T00:55:00.546Z,82.33
2022-12-03T00:57:28.400Z,82.44
2022-12-03T00:59:57.902Z,82.30
2022-12-03T01:02:25.834Z,82.68
2022-12-03T01:04:54.380Z,82.70
2022-12-03T01:07:22.565Z,82.59
2022-12-03T01:09:50.677Z,82.29
2022-12-03T01:12:19.405Z,82.09
2022-12-03T01:14:47.696Z,81.92
2022-12-03T01:17:16.961Z,82.08
2022-12-03T01:19:48.419Z,82.05
2022-12-03T01:22:16.640Z,81.91
2022-12-03T01:24:44.854Z,81.95
2022-12-03T01:27:12.747Z,82.08
2022-12-03T01:29:40.873Z,81.93
2022-12-03T01:32:17.072Z,82.15
2022-12-03T01:34:47.309Z,82.25
2022-12-03T01:37:15.684Z,81.99
2022-12-03T01:39:44.372Z,81.83
2022-12-03T01:42:14.493Z,81.30
2022-12-03T01:44:43.021Z,81.34
2022-12-03T01:47:14.794Z,81.13
2022-12-03T01:49:46.664Z,81.55
2022-12-03T01:52:16.059Z,81.39
2022-12-03T01:54:47.550Z,81.31
2022-12-03T01:57:21.463Z,81.33
2022-12-03T01:59:50.346Z,81.11
2022-12-03T02:02:22.856Z,81.44
2022-12-03T02:04:54.180Z,81.05
2022-12-03T02:07:25.431Z,80.92
2022-12-03T02:09:54.465Z,80.97
2022-12-03T02:12:24.693Z,80.94
2022-12-03T02:14:53.683Z,81.02
2022-12-03T02:17:21.795Z,81.18
2022-12-03T02:19:50.126Z,81.05
2022-12-03T02:22:28.550Z,81.21
2022-12-03T02:25:09.598Z,81.34
2022-12-03T02:27:37.673Z,81.58
2022-12-03T02:30:08.423Z,81.58
2022-12-03T02:32:36.457Z,81.25
2022-12-03T02:35:04.750Z,81.14
2022-12-03T02:37:34.820Z,81.06
2022-12-03T02:40:06.286Z,80.85
2022-12-03T02:42:38.378Z,80.92
2022-12-03T02:45:10.196Z,81.09
2022-12-03T02:47:42.546Z,81.03
2022-12-03T02:50:13.152Z,80.79
2022-12-03T02:52:42.188Z,80.74
2022-12-03T02:55:10.992Z,80.46
2022-12-03T02:57:40.551Z,80.50
2022-12-03T03:00:10.910Z,80.19
2022-12-03T03:02:39.592Z,80.33
2022-12-03T03:05:09.747Z,80.53
2022-12-03T03:07:38.104Z,80.50
2022-12-03T03:10:08.378Z,80.17
2022-12-03T03:12:39.399Z,80.18
2022-12-03T03:15:11.459Z,80.25
2022-12-03T03:17:39.695Z,79.98
2022-12-03T03:20:10.100Z,80.19
2022-12-03T03:22:39.970Z,80.07
2022-12-03T03:25:10.791Z,80.26
2022-12-03T03:27:39.281Z,80.36
2022-12-03T03:30:10.743Z,80.32
2022-12-03T03:32:39.689Z,80.48
2022-12-03T03:35:08.982Z,80.41
2022-12-03T03:37:36.915Z,80.23
2022-12-03T03:40:05.906Z,80.38
2022-12-03T03:42:34.034Z,80.02
2022-12-03T03:45:02.361Z,80.18
2022-12-03T03:47:31.693Z,79.98
2022-12-03T03:49:59.877Z,79.95
2022-12-03T03:52:27.784Z,79.97
2022-12-03T03:54:56.091Z,79.80
2022-12-03T03:57:24.080Z,79.86
2022-12-03T03:59:52.828Z,79.97
2022-12-03T04:02:22.128Z,79.92
2022-12-03T04:04:52.491Z,79.86
2022-12-03T04:07:20.657Z,79.50
2022-12-03T04:09:48.787Z,79.70
2022-12-03T04:12:34.409Z,79.51
2022-12-03T04:15:02.761Z,79.54
2022-12-03T04:17:30.736Z,79.40
2022-12-03T04:20:00.265Z,79.50
2022-12-03T04:22:42.317Z,79.47
2022-12-03T04:25:28.945Z,79.76
2022-12-03T04:28:14.637Z,79.60
2022-12-03T04:30:42.889Z,79.65
2022-12-03T04:33:28.348Z,79.40
2022-12-03T04:35:57.931Z,79.08
2022-12-03T04:38:25.919Z,79.16
2022-12-03T04:41:04.085Z,78.74
2022-12-03T04:43:33.663Z,78.96
2022-12-03T04:46:02.391Z,78.66
2022-12-03T04:48:30.972Z,78.98
2022-12-03T04:51:00.603Z,79.08
2022-12-03T04:53:28.516Z,78.59
2022-12-03T04:55:56.676Z,78.48
2022-12-03T04:58:24.620Z,78.93
2022-12-03T05:00:52.984Z,78.67
2022-12-03T05:03:21.004Z,78.45
2022-12-03T05:05:49.114Z,78.27
2022-12-03T05:08:18.399Z,78.57
2022-12-03T05:10:46.613Z,78.59
2022-12-03T05:13:14.505Z,78.55
2022-12-03T05:15:42.637Z,78.33
2022-12-03T05:18:10.515Z,78.71
2022-12-03T05:20:51.342Z,78.81
2022-12-03T05:23:22.627Z,78.68
2022-12-03T05:25:51.389Z,78.91
2022-12-03T05:28:22.067Z,78.91
2022-12-03T05:30:50.230Z,79.15
2022-12-03T05:33:18.424Z,79.24
2022-12-03T05:35:46.603Z,79.11
2022-12-03T05:38:14.757Z,79.24
2022-12-03T05:40:44.307Z,79.08
2022-12-03T05:43:11.246Z,79.29
2022-12-03T05:45:40.983Z,79.26
2022-12-03T05:48:10.886Z,79.18
2022-12-03T05:50:40.825Z,79.07
2022-12-03T05:53:18.370Z,79.02
2022-12-03T05:55:47.925Z,79.25
2022-12-03T05:58:15.817Z,79.11
2022-12-03T06:00:43.953Z,78.96
2022-12-03T06:03:12.069Z,79.06
2022-12-03T06:05:40.234Z,79.33
2022-12-03T06:08:08.217Z,79.71
2022-12-03T06:10:36.387Z,79.54
2022-12-03T06:13:05.667Z,79.76
2022-12-03T06:15:48.916Z,79.74
2022-12-03T06:18:16.877Z,80.24
2022-12-03T06:20:44.960Z,80.42
2022-12-03T06:23:12.918Z,80.70
2022-12-03T06:25:41.122Z,81.14
2022-12-03T06:28:10.390Z,81.41
2022-12-03T06:30:38.593Z,81.59
2022-12-03T06:33:06.472Z,81.62
2022-12-03T06:35:34.634Z,81.87
2022-12-03T06:38:02.497Z,81.60
2022-12-03T06:40:30.650Z,81.50
2022-12-03T06:42:58.545Z,81.40
2022-12-03T06:45:28.051Z,81.24
2022-12-03T06:47:56.169Z,81.27
2022-12-03T06:50:24.380Z,81.35
2022-12-03T06:52:52.277Z,81.26
2022-12-03T06:55:20.417Z,81.58
2022-12-03T06:57:48.333Z,82.02
2022-12-03T07:00:17.145Z,82.34
2022-12-03T07:02:46.502Z,82.56
2022-12-03T07:05:15.094Z,82.46
2022-12-03T07:07:42.996Z,82.60
2022-12-03T07:10:11.939Z,82.75
2022-12-03T07:12:39.880Z,83.10
2022-12-03T07:15:08.928Z,83.15
2022-12-03T07:17:36.843Z,83.05
2022-12-03T07:20:07.944Z,83.00
2022-12-03T07:22:35.910Z,82.84
2022-12-03T07:25:04.337Z,82.79
2022-12-03T07:27:32.344Z,82.62
2022-12-03T07:30:00.471Z,82.79
2022-12-03T07:32:28.391Z,83.02
2022-12-03T07:34:56.871Z,82.96
2022-12-03T07:37:26.189Z,83.25
2022-12-03T07:39:54.523Z,83.43
2022-12-03T07:42:22.442Z,83.52
2022-12-03T07:44:50.804Z,83.55
2022-12-03T07:47:19.081Z,83.69
2022-12-03T07:49:47.271Z,83.61
2022-12-03T07:52:15.198Z,83.60
2022-12-03T07:54:44.765Z,83.74
2022-12-03T07:57:12.641Z,83.57
2022-12-03T07:59:40.769Z,83.23
2022-12-03T08:02:10.709Z,83.00
2022-12-03T08:04:38.961Z,82.72
2022-12-03T08:07:06.893Z,82.57
2022-12-03T08:09:35.010Z,82.43
2022-12-03T08:12:07.657Z,81.86
2022-12-03T08:14:37.676Z,81.62
2022-12-03T08:17:10.920Z,81.35
2022-12-03T08:19:39.139Z,81.67
2022-12-03T08:22:12.340Z,82.10
2022-12-03T08:24:40.475Z,82.24
2022-12-03T08:27:17.485Z,81.96
2022-12-03T08:29:45.998Z,81.70
2022-12-03T08:32:14.574Z,82.79
2022-12-03T08:34:43.965Z,82.29
2022-12-03T08:37:16.716Z,81.64
2022-12-03T08:39:48.201Z,81.45
2022-12-03T08:42:38.351Z,81.64
2022-12-03T08:45:31.938Z,82.25
2022-12-03T08:48:00.966Z,82.62
2022-12-03T08:50:31.025Z,82.79
2022-12-03T08:53:03.499Z,82.62
2022-12-03T08:55:35.901Z,82.31
2022-12-03T08:58:16.053Z,82.60
2022-12-03T09:00:44.883Z,82.29
2022-12-03T09:03:17.481Z,82.47
2022-12-03T09:05:45.697Z,82.26
2022-12-03T09:08:13.703Z,82.76
2022-12-03T09:10:41.924Z,83.01
2022-12-03T09:13:11.151Z,82.99
2022-12-03T09:15:39.315Z,82.87
2022-12-03T09:18:07.285Z,82.92
2022-12-03T09:20:35.448Z,82.31
2022-12-03T09:23:03.408Z,81.06
2022-12-03T09:25:31.599Z,80.77
2022-12-03T09:27:59.495Z,80.63
2022-12-03T09:30:29.106Z,80.37
2022-12-03T09:32:57.104Z,80.59
2022-12-03T09:35:26.019Z,80.14
2022-12-03T09:37:54.420Z,79.72
2022-12-03T09:40:23.184Z,79.49
2022-12-03T09:42:51.581Z,79.18
2022-12-03T09:45:20.823Z,79.02
2022-12-03T09:47:50.517Z,79.04
2022-12-03T09:50:21.444Z,78.74
2022-12-03T09:52:50.944Z,78.95
2022-12-03T09:55:22.649Z,78.78
2022-12-03T09:57:52.397Z,78.13
2022-12-03T10:00:23.811Z,77.26
2022-12-03T10:02:54.971Z,76.96
2022-12-03T10:05:23.604Z,76.72
2022-12-03T10:07:52.989Z,76.16
2022-12-03T10:10:23.870Z,76.04
2022-12-03T10:12:52.249Z,75.97
2022-12-03T10:15:23.480Z,75.50
2022-12-03T10:17:54.482Z,76.33
2022-12-03T10:20:23.897Z,76.35
2022-12-03T10:22:52.330Z,75.71
2022-12-03T10:25:22.693Z,74.92
2022-12-03T10:27:57.838Z,74.46
2022-12-03T10:30:28.420Z,74.63
2022-12-03T10:33:02.472Z,74.43
2022-12-03T10:35:38.163Z,74.17
2022-12-03T10:38:07.374Z,74.25
2022-12-03T10:40:36.635Z,74.38
2022-12-03T10:43:15.647Z,74.31
2022-12-03T10:45:44.387Z,74.05
2022-12-03T10:48:16.427Z,73.86
2022-12-03T10:50:52.357Z,74.05
2022-12-03T10:53:21.523Z,73.97
2022-12-03T10:55:52.054Z,74.29
2022-12-03T10:58:24.571Z,74.07
2022-12-03T11:00:55.081Z,74.16
2022-12-03T11:03:25.991Z,74.04
2022-12-03T11:05:55.274Z,74.12
2022-12-03T11:08:25.183Z,74.24
2022-12-03T11:10:57.929Z,74.33
2022-12-03T11:13:31.109Z,74.04
2022-12-03T11:15:59.547Z,74.30
2022-12-03T11:19:02.502Z,74.32
2022-12-03T11:21:31.278Z,74.67
2022-12-03T11:24:29.149Z,74.87
2022-12-03T11:27:20.544Z,74.78
2022-12-03T11:30:10.353Z,74.93
2022-12-03T11:33:21.541Z,74.85
2022-12-03T11:36:12.033Z,74.22
2022-12-03T11:38:53.680Z,74.41
2022-12-03T11:41:27.866Z,74.59
2022-12-03T11:44:28.121Z,74.47
2022-12-03T11:46:57.414Z,74.61
2022-12-03T11:49:33.290Z,74.84
2022-12-03T11:52:13.352Z,74.60
2022-12-03T11:54:41.608Z,75.08
2022-12-03T11:57:26.777Z,74.94
2022-12-03T12:00:08.692Z,74.79
2022-12-03T12:02:45.548Z,74.88
2022-12-03T12:05:18.817Z,74.84
2022-12-03T12:07:48.377Z,74.70
2022-12-03T12:10:47.449Z,74.41
2022-12-03T12:13:57.095Z,74.47
2022-12-03T12:16:50.419Z,74.44
2022-12-03T12:19:39.852Z,74.62
2022-12-03T12:22:16.781Z,74.37
2022-12-03T12:24:52.302Z,74.04
2022-12-03T12:27:22.319Z,74.11
2022-12-03T12:29:55.207Z,73.96
2022-12-03T12:32:29.668Z,73.90
2022-12-03T12:35:02.275Z,74.19
2022-12-03T12:37:35.915Z,74.19
2022-12-03T12:40:13.819Z,74.03
2022-12-03T12:42:45.253Z,73.83
2022-12-03T12:45:16.159Z,74.00
2022-12-03T12:47:49.196Z,73.81
2022-12-03T12:50:19.567Z,74.17
2022-12-03T12:52:51.614Z,74.02
2022-12-03T12:55:21.699Z,74.02
2022-12-03T12:57:49.869Z,73.96
2022-12-03T13:00:20.156Z,74.36
2022-12-03T13:02:53.229Z,74.19
2022-12-03T13:05:21.366Z,74.33
2022-12-03T13:07:49.678Z,74.56
2022-12-03T13:10:36.538Z,74.15
2022-12-03T13:13:17.038Z,74.31
2022-12-03T13:15:50.432Z,74.44
2022-12-03T13:18:25.790Z,74.71
2022-12-03T13:20:54.429Z,74.57
2022-12-03T13:23:31.320Z,74.92
2022-12-03T13:26:17.348Z,74.80
2022-12-03T13:28:51.084Z,74.81
2022-12-03T13:31:25.433Z,74.95
2022-12-03T13:33:54.991Z,74.73
2022-12-03T13:36:27.661Z,74.58
2022-12-03T13:38:56.383Z,74.93
2022-12-03T13:41:42.954Z,74.66
2022-12-03T13:44:15.249Z,74.37
2022-12-03T13:46:43.531Z,74.82
2022-12-03T13:49:21.209Z,74.71
2022-12-03T13:51:49.778Z,74.84
2022-12-03T13:54:21.809Z,75.01
2022-12-03T13:56:51.437Z,74.90
2022-12-03T13:59:25.757Z,75.01
2022-12-03T14:01:54.286Z,74.49
2022-12-03T14:04:22.507Z,74.71
2022-12-03T14:06:50.468Z,74.59
2022-12-03T14:09:18.608Z,74.68
2022-12-03T14:12:04.204Z,74.45
2022-12-03T14:14:33.961Z,74.30
2022-12-03T14:17:01.926Z,74.06
2022-12-03T14:19:30.097Z,74.10
2022-12-03T14:21:58.084Z,73.85
2022-12-03T14:24:27.026Z,73.90
2022-12-03T14:26:54.985Z,73.79
2022-12-03T14:29:23.144Z,73.82
2022-12-03T14:31:52.612Z,73.74
2022-12-03T14:34:21.727Z,73.77
2022-12-03T14:36:49.893Z,73.60
2022-12-03T14:39:18.025Z,73.35
2022-12-03T14:42:03.816Z,73.45
2022-12-03T14:44:31.937Z,73.54
2022-12-03T14:47:01.317Z,73.47
2022-12-03T14:49:29.488Z,73.70
2022-12-03T14:51:57.502Z,73.45
2022-12-03T14:54:25.995Z,73.30
2022-12-03T14:56:53.998Z,73.85
2022-12-03T14:59:27.402Z,73.79
2022-12-03T15:01:56.175Z,74.01
2022-12-03T15:04:25.760Z,73.77
2022-12-03T15:06:53.795Z,73.84
2022-12-03T15:09:22.120Z,73.76
2022-12-03T15:11:50.127Z,73.88
2022-12-03T15:14:18.429Z,74.04
2022-12-03T15:16:46.409Z,73.77
2022-12-03T15:19:15.622Z,73.91
2022-12-03T15:21:45.267Z,74.25
2022-12-03T15:24:13.389Z,74.11
2022-12-03T15:26:41.319Z,74.37
2022-12-03T15:29:09.661Z,74.42
2022-12-03T15:31:37.585Z,74.18
2022-12-03T15:34:05.793Z,74.00
2022-12-03T15:36:33.746Z,74.34
2022-12-03T15:39:03.217Z,74.43
2022-12-03T15:41:31.615Z,74.60
2022-12-03T15:44:01.416Z,74.20
2022-12-03T15:46:31.183Z,74.32
2022-12-03T15:49:00.167Z,74.24
2022-12-03T15:51:28.287Z,74.13
2022-12-03T15:53:56.449Z,74.40
2022-12-03T15:56:25.976Z,74.33
2022-12-03T15:58:54.487Z,74.32
2022-12-03T16:01:22.504Z,74.59
2022-12-03T16:03:50.704Z,74.81
2022-12-03T16:06:19.601Z,75.08
2022-12-03T16:08:48.215Z,74.91
2022-12-03T16:11:16.381Z,74.87
2022-12-03T16:13:45.871Z,74.84
2022-12-03T16:16:13.962Z,74.91
2022-12-03T16:18:44.027Z,74.66
2022-12-03T16:21:11.949Z,74.89
2022-12-03T16:23:40.155Z,75.01
2022-12-03T16:26:08.081Z,74.86
2022-12-03T16:28:36.265Z,74.63
2022-12-03T16:31:05.939Z,74.71
2022-12-03T16:33:34.208Z,75.18
2022-12-03T16:36:03.496Z,75.07
2022-12-03T16:38:33.496Z,75.20
2022-12-03T16:41:02.129Z,75.34
2022-12-03T16:43:30.397Z,75.03
2022-12-03T16:46:20.482Z,75.14
2022-12-03T16:48:50.874Z,75.22
2022-12-03T16:51:19.883Z,75.54
2022-12-03T16:53:48.521Z,75.52
2022-12-03T16:56:16.557Z,75.45
2022-12-03T16:58:45.112Z,75.00
2022-12-03T17:01:13.619Z,75.05
2022-12-03T17:03:42.175Z,74.74
2022-12-03T17:06:11.545Z,74.78
2022-12-03T17:08:42.023Z,74.93
2022-12-03T17:11:12.410Z,74.78
2022-12-03T17:13:40.594Z,74.81
2022-12-03T17:16:08.655Z,74.92
2022-12-03T17:18:36.865Z,75.11
2022-12-03T17:21:05.175Z,74.71
2022-12-03T17:23:34.674Z,74.20
2022-12-03T17:26:02.632Z,73.66
2022-12-03T17:28:31.017Z,73.37
2022-12-03T17:30:59.317Z,73.61
2022-12-03T17:33:27.639Z,73.84
2022-12-03T17:35:55.849Z,73.88
2022-12-03T17:38:24.005Z,73.90
2022-12-03T17:40:53.426Z,73.68
2022-12-03T17:43:21.564Z,74.07
2022-12-03T17:45:49.527Z,74.01
2022-12-03T17:48:18.035Z,74.14
2022-12-03T17:50:46.092Z,74.44
2022-12-03T17:53:14.220Z,74.66
2022-12-03T17:55:44.995Z,74.59
2022-12-03T17:58:14.966Z,74.45
2022-12-03T18:00:43.137Z,74.68
2022-12-03T18:03:11.282Z,74.39
2022-12-03T18:05:39.201Z,74.62
2022-12-03T18:08:07.677Z,74.94
2022-12-03T18:10:35.755Z,75.06
2022-12-03T18:13:04.054Z,75.35
2022-12-03T18:15:33.497Z,74.77
2022-12-03T18:18:02.099Z,74.65
2022-12-03T18:20:30.030Z,75.16
2022-12-03T18:22:58.984Z,75.40
2022-12-03T18:25:28.533Z,75.20
2022-12-03T18:27:56.913Z,75.31
2022-12-03T18:30:25.367Z,75.31
2022-12-03T18:32:54.968Z,75.49
2022-12-03T18:35:22.949Z,75.39
2022-12-03T18:37:51.876Z,75.55
2022-12-03T18:40:22.443Z,75.31
2022-12-03T18:42:50.650Z,75.21
2022-12-03T18:45:18.698Z,75.31
2022-12-03T18:47:47.050Z,75.48
2022-12-03T18:50:16.418Z,75.41
2022-12-03T18:52:44.621Z,75.72
2022-12-03T18:55:16.097Z,75.62
2022-12-03T18:57:44.451Z,75.62
2022-12-03T19:00:14.143Z,75.63
2022-12-03T19:05:32.285Z,75.13
2022-12-03T19:08:00.651Z,75.20
2022-12-03T19:10:28.730Z,75.41
2022-12-03T19:12:56.999Z,75.40
2022-12-03T19:15:24.958Z,75.29
2022-12-03T19:17:53.169Z,75.73
2022-12-03T19:20:21.095Z,75.32
2022-12-03T19:22:50.566Z,75.28
2022-12-03T19:25:18.645Z,74.68
2022-12-03T19:27:47.325Z,74.94
2022-12-03T19:30:15.546Z,75.07
2022-12-03T19:32:45.124Z,75.10
2022-12-03T19:35:13.061Z,75.40
2022-12-03T19:37:41.250Z,75.15
2022-12-03T19:40:11.445Z,74.98
2022-12-03T19:42:40.000Z,74.94
2022-12-03T19:45:09.010Z,75.22
2022-12-03T19:47:37.912Z,75.14
2022-12-03T19:50:07.091Z,74.98
2022-12-03T19:52:37.137Z,75.27
2022-12-03T19:55:06.123Z,75.08
2022-12-03T19:57:35.727Z,75.17
2022-12-03T20:00:05.302Z,75.13
2022-12-03T20:02:40.776Z,75.18
2022-12-03T20:05:09.182Z,75.14
2022-12-03T20:07:37.813Z,75.65
2022-12-03T20:10:07.335Z,75.55
2022-12-03T20:12:36.912Z,75.55
2022-12-03T20:15:05.948Z,75.44
2022-12-03T20:17:34.213Z,75.15
2022-12-03T20:20:02.155Z,75.32
2022-12-03T20:22:31.638Z,75.06
2022-12-03T20:24:59.505Z,75.33
2022-12-03T20:27:27.835Z,75.34
2022-12-03T20:29:57.451Z,75.50
2022-12-03T20:32:25.998Z,75.41
2022-12-03T20:34:54.048Z,75.45
2022-12-03T20:37:22.304Z,75.54
2022-12-03T20:39:50.733Z,75.42
2022-12-03T20:42:19.305Z,75.63
2022-12-03T20:44:47.485Z,75.53
2022-12-03T20:47:17.524Z,75.56
2022-12-03T20:49:45.589Z,75.61
2022-12-03T20:52:13.825Z,75.40
2022-12-03T20:54:42.021Z,75.29
2022-12-03T20:57:10.378Z,75.60
2022-12-03T20:59:38.537Z,75.76
2022-12-03T21:02:06.931Z,75.59
2022-12-03T21:04:36.318Z,75.56
2022-12-03T21:07:04.815Z,75.45
2022-12-03T21:09:32.993Z,75.26
2022-12-03T21:12:01.714Z,75.72
2022-12-03T21:14:29.706Z,76.09
2022-12-03T21:17:08.242Z,75.89
2022-12-03T21:19:39.219Z,76.01
2022-12-03T21:22:07.958Z,76.09
2022-12-03T21:24:36.195Z,75.85
2022-12-03T21:27:04.492Z,75.94
2022-12-03T21:29:32.433Z,76.08
2022-12-03T21:32:00.619Z,76.12
2022-12-03T21:34:35.557Z,75.93
2022-12-03T21:37:06.119Z,76.08
2022-12-03T21:39:37.337Z,76.07
2022-12-03T21:42:19.370Z,75.75
2022-12-03T21:44:54.514Z,75.73
2022-12-03T21:47:22.753Z,75.48
2022-12-03T21:49:50.780Z,75.55
2022-12-03T21:52:20.290Z,75.43
2022-12-03T21:54:48.194Z,75.70
2022-12-03T21:57:16.441Z,76.19
2022-12-03T21:59:44.488Z,76.35
2022-12-03T22:02:13.036Z,76.10
2022-12-03T22:04:41.415Z,76.02
2022-12-03T22:07:09.622Z,76.01
2022-12-03T22:09:38.958Z,76.17
2022-12-03T22:12:07.526Z,75.86
2022-12-03T22:14:35.641Z,75.64
2022-12-03T22:17:04.129Z,75.72
2022-12-03T22:19:32.306Z,75.50
2022-12-03T22:22:01.008Z,75.40
2022-12-03T22:24:29.006Z,75.69
2022-12-03T22:26:58.945Z,75.60
2022-12-03T22:29:26.928Z,75.71
2022-12-03T22:31:55.103Z,75.92
2022-12-03T22:34:23.099Z,75.99
2022-12-03T22:36:51.316Z,76.23
2022-12-03T22:39:19.530Z,76.08
2022-12-03T22:41:47.703Z,75.94
2022-12-03T22:44:17.050Z,75.86
2022-12-03T22:46:45.278Z,76.09
2022-12-03T22:49:13.793Z,75.97
2022-12-03T22:51:45.210Z,75.57
2022-12-03T22:54:13.456Z,75.61
2022-12-03T22:56:41.739Z,75.53
2022-12-03T22:59:09.644Z,75.48
2022-12-03T23:01:40.767Z,75.59
2022-12-03T23:04:09.582Z,75.80
2022-12-03T23:06:38.846Z,75.53
2022-12-03T23:09:08.096Z,75.43
2022-12-03T23:11:37.031Z,75.35
2022-12-03T23:14:05.019Z,75.33
2022-12-03T23:16:34.173Z,75.78
2022-12-03T23:19:04.397Z,77.75
2022-12-03T23:21:34.959Z,77.44
2022-12-03T23:24:04.638Z,76.31
2022-12-03T23:26:35.292Z,75.68
2022-12-03T23:29:03.327Z,74.85
2022-12-03T23:31:32.740Z,74.77
2022-12-03T23:34:01.294Z,74.88
2022-12-03T23:36:31.836Z,74.78
2022-12-03T23:38:59.773Z,74.70
2022-12-03T23:41:28.428Z,74.64
2022-12-03T23:43:57.381Z,74.82
2022-12-03T23:46:27.274Z,74.71
2022-12-03T23:48:58.334Z,74.79
2022-12-03T23:51:27.153Z,75.01
2022-12-03T23:53:57.032Z,75.33
2022-12-03T23:56:27.566Z,75.08
2022-12-03T23:58:55.956Z,75.16
